createdAt,value
2018-11-06T00:00:16.847Z,99.44
2018-11-06T00:02:47.087Z,97.47
2018-11-06T00:05:17.816Z,99.26
2018-11-06T00:07:46.937Z,100.00
2018-11-06T00:10:16.533Z,100.00
2018-11-06T00:12:45.710Z,100.00
2018-11-06T00:15:14.735Z,100.00
2018-11-06T00:17:43.833Z,100.00
2018-11-06T00:20:13.938Z,100.00
2018-11-06T00:22:43.063Z,100.00
2018-11-06T00:25:12.938Z,100.00
2018-11-06T00:27:42.232Z,100.00
2018-11-06T00:30:12.732Z,100.00
2018-11-06T00:32:42.359Z,100.00
2018-11-06T00:35:12.681Z,100.00
2018-11-06T00:37:43.143Z,100.00
2018-11-06T00:40:12.400Z,100.00
2018-11-06T00:42:41.479Z,100.00
2018-11-06T00:45:14.135Z,100.00
2018-11-06T00:47:43.520Z,100.00
2018-11-06T00:50:13.484Z,100.00
2018-11-06T00:52:43.523Z,100.00
2018-11-06T00:55:12.826Z,100.00
2018-11-06T00:57:43.239Z,100.00
2018-11-06T01:00:14.624Z,100.00
2018-11-06T01:02:43.735Z,100.00
2018-11-06T01:05:13.488Z,100.00
2018-11-06T01:07:43.516Z,100.00
2018-11-06T01:10:12.597Z,100.00
2018-11-06T01:12:41.800Z,100.00
2018-11-06T01:15:12.336Z,100.00
2018-11-06T01:17:42.036Z,100.00
2018-11-06T01:20:13.329Z,100.00
2018-11-06T01:22:42.479Z,100.00
2018-11-06T01:25:12.077Z,100.00
2018-11-06T01:27:41.253Z,100.00
2018-11-06T01:30:16.731Z,100.00
2018-11-06T01:32:46.867Z,100.00
2018-11-06T01:35:16.551Z,100.00
2018-11-06T01:37:46.360Z,100.00
2018-11-06T01:40:17.440Z,100.00
2018-11-06T01:42:47.120Z,100.00
2018-11-06T01:45:17.042Z,100.00
2018-11-06T01:47:46.175Z,100.00
2018-11-06T01:50:17.373Z,100.00
2018-11-06T01:52:47.563Z,100.00
2018-11-06T01:55:16.616Z,100.00
2018-11-06T01:57:45.783Z,100.00
2018-11-06T02:00:16.380Z,100.00
2018-11-06T02:02:45.469Z,99.75
2018-11-06T02:05:15.784Z,100.00
2018-11-06T02:07:45.960Z,100.00
2018-11-06T02:10:15.681Z,100.00
2018-11-06T02:12:45.580Z,100.00
2018-11-06T02:15:14.798Z,99.10
2018-11-06T02:17:44.701Z,100.00
2018-11-06T02:20:14.608Z,100.00
2018-11-06T02:22:44.320Z,100.00
2018-11-06T02:25:13.925Z,100.00
2018-11-06T02:27:43.120Z,100.00
2018-11-06T02:30:13.971Z,100.00
2018-11-06T02:32:43.988Z,100.00
2018-11-06T02:35:13.140Z,100.00
2018-11-06T02:37:42.323Z,100.00
2018-11-06T02:40:12.749Z,100.00
2018-11-06T02:42:42.415Z,100.00
2018-11-06T02:45:12.339Z,100.00
2018-11-06T02:47:42.243Z,100.00
2018-11-06T02:50:12.257Z,100.00
2018-11-06T02:52:41.873Z,100.00
2018-11-06T02:55:11.422Z,100.00
2018-11-06T02:57:40.888Z,100.00
2018-11-06T03:00:12.566Z,100.00
2018-11-06T03:02:41.923Z,100.00
2018-11-06T03:05:11.525Z,100.00
2018-11-06T03:07:41.155Z,100.00
2018-11-06T03:10:11.586Z,100.00
2018-11-06T03:12:41.862Z,100.00
2018-11-06T03:15:12.091Z,100.00
2018-11-06T03:17:41.263Z,100.00
2018-11-06T03:20:11.026Z,100.00
2018-11-06T03:22:40.574Z,100.00
2018-11-06T03:25:09.669Z,100.00
2018-11-06T03:27:38.761Z,100.00
2018-11-06T03:30:09.720Z,100.00
2018-11-06T03:32:38.828Z,100.00
2018-11-06T03:35:08.804Z,100.00
2018-11-06T03:37:38.183Z,100.00
2018-11-06T03:40:07.992Z,100.00
2018-11-06T03:42:37.458Z,100.00
2018-11-06T03:45:07.003Z,100.00
2018-11-06T03:47:36.339Z,100.00
2018-11-06T03:50:05.756Z,100.00
2018-11-06T03:52:34.849Z,100.00
2018-11-06T03:55:03.965Z,100.00
2018-11-06T03:57:33.060Z,100.00
2018-11-06T04:00:02.178Z,100.00
2018-11-06T04:02:31.245Z,100.00
2018-11-06T04:05:00.413Z,100.00
2018-11-06T04:07:29.523Z,100.00
2018-11-06T04:09:58.713Z,100.00
2018-11-06T04:12:27.811Z,100.00
2018-11-06T04:14:56.940Z,100.00
2018-11-06T04:17:26.091Z,100.00
2018-11-06T04:19:55.299Z,100.00
2018-11-06T04:22:24.449Z,100.00
2018-11-06T04:24:53.597Z,100.00
2018-11-06T04:27:22.701Z,100.00
2018-11-06T04:29:51.911Z,100.00
2018-11-06T04:32:20.980Z,100.00
2018-11-06T04:34:50.177Z,100.00
2018-11-06T04:37:19.273Z,100.00
2018-11-06T04:39:48.404Z,100.00
2018-11-06T04:42:17.552Z,100.00
2018-11-06T04:44:46.769Z,100.00
2018-11-06T04:47:15.902Z,100.00
2018-11-06T04:49:44.980Z,100.00
2018-11-06T04:52:14.256Z,100.00
2018-11-06T04:54:43.381Z,100.00
2018-11-06T04:57:12.488Z,100.00
2018-11-06T04:59:41.636Z,100.00
2018-11-06T05:02:10.771Z,100.00
2018-11-06T05:04:39.865Z,100.00
2018-11-06T05:07:09.131Z,100.00
2018-11-06T05:09:38.334Z,100.00
2018-11-06T05:12:07.416Z,100.00
2018-11-06T05:14:36.679Z,100.00
2018-11-06T05:17:06.135Z,100.00
2018-11-06T05:19:35.321Z,100.00
2018-11-06T05:22:04.986Z,100.00
2018-11-06T05:24:34.070Z,100.00
2018-11-06T05:27:04.013Z,100.00
2018-11-06T05:29:33.304Z,100.00
2018-11-06T05:32:02.558Z,100.00
2018-11-06T05:34:31.747Z,100.00
2018-11-06T05:37:01.030Z,100.00
2018-11-06T05:39:30.165Z,100.00
2018-11-06T05:41:59.332Z,100.00
2018-11-06T05:44:28.415Z,100.00
2018-11-06T05:46:57.672Z,100.00
2018-11-06T05:49:27.595Z,100.00
2018-11-06T05:51:56.738Z,100.00
2018-11-06T05:54:25.842Z,100.00
2018-11-06T05:56:55.030Z,100.00
2018-11-06T05:59:24.125Z,100.00
2018-11-06T06:01:53.320Z,100.00
2018-11-06T06:04:22.381Z,100.00
2018-11-06T06:06:51.508Z,100.00
2018-11-06T06:09:20.604Z,100.00
2018-11-06T06:11:49.708Z,100.00
2018-11-06T06:14:18.789Z,100.00
2018-11-06T06:16:47.979Z,100.00
2018-11-06T06:19:17.043Z,100.00
2018-11-06T06:21:46.245Z,100.00
2018-11-06T06:24:15.317Z,100.00
2018-11-06T06:26:44.500Z,100.00
2018-11-06T06:29:13.636Z,100.00
2018-11-06T06:31:42.745Z,100.00
2018-11-06T06:34:11.873Z,100.00
2018-11-06T06:36:40.976Z,100.00
2018-11-06T06:39:11.070Z,100.00
2018-11-06T06:41:40.343Z,100.00
2018-11-06T06:44:09.508Z,100.00
2018-11-06T06:46:38.680Z,100.00
2018-11-06T06:49:07.795Z,100.00
2018-11-06T06:51:36.882Z,100.00
2018-11-06T06:54:06.176Z,100.00
2018-11-06T06:56:35.188Z,100.00
2018-11-06T06:59:04.347Z,100.00
2018-11-06T07:01:33.460Z,100.00
2018-11-06T07:04:02.585Z,100.00
2018-11-06T07:06:31.799Z,100.00
2018-11-06T07:09:01.009Z,100.00
2018-11-06T07:11:30.435Z,100.00
2018-11-06T07:13:59.513Z,100.00
2018-11-06T07:16:28.647Z,100.00
2018-11-06T07:18:57.848Z,100.00
2018-11-06T07:21:26.927Z,100.00
2018-11-06T07:23:56.062Z,100.00
2018-11-06T07:26:25.119Z,97.42
2018-11-06T07:28:54.235Z,94.33
2018-11-06T07:31:23.383Z,92.43
2018-11-06T07:33:52.429Z,91.87
2018-11-06T07:36:21.595Z,91.75
2018-11-06T07:38:50.792Z,91.59
2018-11-06T07:41:19.866Z,93.57
2018-11-06T07:43:49.116Z,92.37
2018-11-06T07:46:18.292Z,91.01
2018-11-06T07:48:47.522Z,90.57
2018-11-06T07:51:16.632Z,90.20
2018-11-06T07:53:45.759Z,89.23
2018-11-06T07:56:14.915Z,87.41
2018-11-06T07:58:44.013Z,86.10
2018-11-06T08:01:13.160Z,85.81
2018-11-06T08:03:42.254Z,85.90
2018-11-06T08:06:11.489Z,86.18
2018-11-06T08:08:40.520Z,85.82
2018-11-06T08:11:09.648Z,84.82
2018-11-06T08:13:38.925Z,82.05
2018-11-06T08:16:08.074Z,81.96
2018-11-06T08:18:37.341Z,80.93
2018-11-06T08:21:06.441Z,80.62
2018-11-06T08:23:35.584Z,80.54
2018-11-06T08:26:05.036Z,81.32
2018-11-06T08:28:34.130Z,82.31
2018-11-06T08:31:03.399Z,80.41
2018-11-06T08:33:32.360Z,78.66
2018-11-06T08:36:01.527Z,75.96
2018-11-06T08:38:30.632Z,74.66
2018-11-06T08:40:59.717Z,74.01
2018-11-06T08:43:28.825Z,73.89
2018-11-06T08:45:57.919Z,71.25
2018-11-06T08:48:26.993Z,70.23
2018-11-06T08:50:56.129Z,70.01
2018-11-06T08:53:25.627Z,70.64
2018-11-06T08:55:54.835Z,69.78
2018-11-06T08:58:23.934Z,68.74
2018-11-06T09:00:53.005Z,67.72
2018-11-06T09:03:22.102Z,67.48
2018-11-06T09:05:51.394Z,65.89
2018-11-06T09:08:20.528Z,66.44
2018-11-06T09:10:49.893Z,64.42
2018-11-06T09:13:19.037Z,63.98
2018-11-06T09:15:48.179Z,63.42
2018-11-06T09:18:17.276Z,63.10
2018-11-06T09:20:46.462Z,63.14
2018-11-06T09:23:15.538Z,62.88
2018-11-06T09:25:44.600Z,62.52
2018-11-06T09:28:13.809Z,62.89
2018-11-06T09:30:42.951Z,62.69
2018-11-06T09:33:11.960Z,63.15
2018-11-06T09:35:41.157Z,63.52
2018-11-06T09:38:10.288Z,60.12
2018-11-06T09:40:39.446Z,62.82
2018-11-06T09:43:08.524Z,60.36
2018-11-06T09:45:37.722Z,61.90
2018-11-06T09:48:06.824Z,61.08
2018-11-06T09:50:35.953Z,59.58
2018-11-06T09:53:05.055Z,62.47
2018-11-06T09:55:34.139Z,60.68
2018-11-06T09:58:03.331Z,59.11
2018-11-06T10:00:32.600Z,57.83
2018-11-06T10:03:01.714Z,56.88
2018-11-06T10:05:30.822Z,57.19
2018-11-06T10:07:59.907Z,59.04
2018-11-06T10:10:29.006Z,54.14
2018-11-06T10:12:58.143Z,58.19
2018-11-06T10:15:27.264Z,58.04
2018-11-06T10:17:56.297Z,56.72
2018-11-06T10:20:25.417Z,55.94
2018-11-06T10:22:54.569Z,57.00
2018-11-06T10:25:23.633Z,54.79
2018-11-06T10:27:52.709Z,55.74
2018-11-06T10:30:21.807Z,54.79
2018-11-06T10:32:50.872Z,54.16
2018-11-06T10:35:19.957Z,53.60
2018-11-06T10:37:49.130Z,54.45
2018-11-06T10:40:19.872Z,52.88
2018-11-06T10:42:49.292Z,54.43
2018-11-06T10:45:18.941Z,53.61
2018-11-06T10:47:48.440Z,53.39
2018-11-06T10:50:18.292Z,51.86
2018-11-06T10:52:48.833Z,51.56
2018-11-06T10:55:17.964Z,53.49
2018-11-06T10:57:47.078Z,52.38
2018-11-06T11:00:21.383Z,52.17
2018-11-06T11:02:55.832Z,49.83
2018-11-06T11:05:26.650Z,50.04
2018-11-06T11:07:55.755Z,50.43
2018-11-06T11:10:24.896Z,50.30
2018-11-06T11:12:53.985Z,50.09
2018-11-06T11:15:23.188Z,51.43
2018-11-06T11:17:52.302Z,51.47
2018-11-06T11:20:21.629Z,53.20
2018-11-06T11:22:50.619Z,52.72
2018-11-06T11:25:19.775Z,53.17
2018-11-06T11:27:48.918Z,52.68
2018-11-06T11:30:18.084Z,52.51
2018-11-06T11:32:48.244Z,52.03
2018-11-06T11:35:17.361Z,52.18
2018-11-06T11:37:46.503Z,52.15
2018-11-06T11:40:16.352Z,52.23
2018-11-06T11:42:45.575Z,49.85
2018-11-06T11:45:15.465Z,49.22
2018-11-06T11:47:44.559Z,44.92
2018-11-06T11:50:14.752Z,42.63
2018-11-06T11:52:44.004Z,41.59
2018-11-06T11:55:13.192Z,39.43
2018-11-06T11:57:43.014Z,39.07
2018-11-06T12:00:14.245Z,38.21
2018-11-06T12:02:43.567Z,38.92
2018-11-06T12:05:12.776Z,41.43
2018-11-06T12:07:41.889Z,39.86
2018-11-06T12:10:12.019Z,38.92
2018-11-06T12:12:41.374Z,37.82
2018-11-06T12:15:13.192Z,38.48
2018-11-06T12:17:42.992Z,39.09
2018-11-06T12:20:12.938Z,40.99
2018-11-06T12:22:42.147Z,41.05
2018-11-06T12:25:11.992Z,40.34
2018-11-06T12:27:41.310Z,40.48
2018-11-06T12:30:12.590Z,38.84
2018-11-06T12:32:42.072Z,39.19
2018-11-06T12:35:12.204Z,40.97
2018-11-06T12:37:41.543Z,40.68
2018-11-06T12:40:11.876Z,40.56
2018-11-06T12:42:41.440Z,39.97
2018-11-06T12:45:12.065Z,40.95
2018-11-06T12:47:41.364Z,40.65
2018-11-06T12:50:10.727Z,41.67
2018-11-06T12:52:40.176Z,41.56
2018-11-06T12:55:10.889Z,40.47
2018-11-06T12:57:40.175Z,36.87
2018-11-06T13:00:12.087Z,33.93
2018-11-06T13:02:41.211Z,33.13
2018-11-06T13:05:10.662Z,34.66
2018-11-06T13:07:41.032Z,36.12
2018-11-06T13:10:10.900Z,36.14
2018-11-06T13:12:40.549Z,32.97
2018-11-06T13:15:09.659Z,29.28
2018-11-06T13:17:38.841Z,29.49
2018-11-06T13:20:09.735Z,31.93
2018-11-06T13:22:39.799Z,28.57
2018-11-06T13:25:08.893Z,26.18
2018-11-06T13:27:38.867Z,24.11
2018-11-06T13:30:10.730Z,24.95
2018-11-06T13:32:40.411Z,28.61
2018-11-06T13:35:09.965Z,28.60
2018-11-06T13:37:39.120Z,24.25
2018-11-06T13:40:10.390Z,23.15
2018-11-06T13:42:39.882Z,22.84
2018-11-06T13:45:11.914Z,23.73
2018-11-06T13:47:41.056Z,23.82
2018-11-06T13:50:10.106Z,22.95
2018-11-06T13:52:39.264Z,22.28
2018-11-06T13:55:09.970Z,22.39
2018-11-06T13:57:39.056Z,21.97
2018-11-06T14:00:12.373Z,21.68
2018-11-06T14:02:41.432Z,23.20
2018-11-06T14:05:10.552Z,26.21
2018-11-06T14:07:39.796Z,27.96
2018-11-06T14:10:09.256Z,30.84
2018-11-06T14:12:38.599Z,32.83
2018-11-06T14:15:07.672Z,31.46
2018-11-06T14:17:37.033Z,32.08
2018-11-06T14:20:07.732Z,32.75
2018-11-06T14:22:36.888Z,35.14
2018-11-06T14:25:06.894Z,35.41
2018-11-06T14:27:36.186Z,35.80
2018-11-06T14:30:08.825Z,37.54
2018-11-06T14:32:38.015Z,40.79
2018-11-06T14:35:08.205Z,41.66
2018-11-06T14:37:37.343Z,43.96
2018-11-06T14:40:07.569Z,45.41
2018-11-06T14:42:37.161Z,46.27
2018-11-06T14:45:07.822Z,47.08
2018-11-06T14:47:37.012Z,47.37
2018-11-06T14:50:07.005Z,47.74
2018-11-06T14:52:36.375Z,47.78
2018-11-06T14:55:06.531Z,48.70
2018-11-06T14:57:35.671Z,49.71
2018-11-06T15:00:05.996Z,52.10
2018-11-06T15:02:35.075Z,53.50
2018-11-06T15:05:04.228Z,53.95
2018-11-06T15:07:33.363Z,55.99
2018-11-06T15:10:02.562Z,56.82
2018-11-06T15:12:31.631Z,57.36
2018-11-06T15:15:00.729Z,58.54
2018-11-06T15:17:29.921Z,59.85
2018-11-06T15:19:58.998Z,60.76
2018-11-06T15:22:28.149Z,61.50
2018-11-06T15:24:57.411Z,62.07
2018-11-06T15:27:26.457Z,63.54
2018-11-06T15:29:55.608Z,64.71
2018-11-06T15:32:24.808Z,66.29
2018-11-06T15:34:53.811Z,68.43
2018-11-06T15:37:22.929Z,68.79
2018-11-06T15:39:52.080Z,70.01
2018-11-06T15:42:21.181Z,70.74
2018-11-06T15:44:50.279Z,72.13
2018-11-06T15:47:19.392Z,73.65
2018-11-06T15:49:48.468Z,74.73
2018-11-06T15:52:17.544Z,75.47
2018-11-06T15:54:46.678Z,75.22
2018-11-06T15:57:15.752Z,75.64
2018-11-06T15:59:44.932Z,76.91
2018-11-06T16:02:14.056Z,77.80
2018-11-06T16:04:43.124Z,78.78
2018-11-06T16:07:12.331Z,79.57
2018-11-06T16:09:41.444Z,79.49
2018-11-06T16:12:10.531Z,83.18
2018-11-06T16:14:39.726Z,84.28
2018-11-06T16:17:08.833Z,84.06
2018-11-06T16:19:37.933Z,85.39
2018-11-06T16:22:07.103Z,86.13
2018-11-06T16:24:36.213Z,85.94
2018-11-06T16:27:06.329Z,87.77
2018-11-06T16:29:35.475Z,88.27
2018-11-06T16:32:04.652Z,89.46
2018-11-06T16:34:34.023Z,89.79
2018-11-06T16:37:03.225Z,90.73
2018-11-06T16:39:32.491Z,91.50
2018-11-06T16:42:01.637Z,91.59
2018-11-06T16:44:30.814Z,92.21
2018-11-06T16:46:59.890Z,93.46
2018-11-06T16:49:29.008Z,93.55
2018-11-06T16:51:58.096Z,94.53
2018-11-06T16:54:27.161Z,94.43
2018-11-06T16:56:56.362Z,94.57
2018-11-06T16:59:25.543Z,95.15
2018-11-06T17:01:54.599Z,94.68
2018-11-06T17:04:23.809Z,95.67
2018-11-06T17:06:52.920Z,96.30
2018-11-06T17:09:22.282Z,97.61
2018-11-06T17:11:51.388Z,97.56
2018-11-06T17:14:20.499Z,98.37
2018-11-06T17:16:49.674Z,97.69
2018-11-06T17:19:18.768Z,98.27
2018-11-06T17:21:47.960Z,98.34
2018-11-06T17:24:17.080Z,98.06
2018-11-06T17:26:46.262Z,99.35
2018-11-06T17:29:15.365Z,100.00
2018-11-06T17:31:44.448Z,100.00
2018-11-06T17:34:13.562Z,99.45
2018-11-06T17:36:42.640Z,100.00
2018-11-06T17:39:13.164Z,100.00
2018-11-06T17:41:42.364Z,100.00
2018-11-06T17:44:11.490Z,100.00
2018-11-06T17:46:40.639Z,100.00
2018-11-06T17:49:09.770Z,100.00
2018-11-06T17:51:38.851Z,100.00
2018-11-06T17:54:08.041Z,100.00
2018-11-06T17:56:37.120Z,100.00
2018-11-06T17:59:06.455Z,100.00
2018-11-06T18:01:35.713Z,100.00
2018-11-06T18:04:05.031Z,100.00
2018-11-06T18:06:34.157Z,100.00
2018-11-06T18:09:03.473Z,100.00
2018-11-06T18:11:32.547Z,100.00
2018-11-06T18:14:01.641Z,100.00
2018-11-06T18:16:30.841Z,100.00
2018-11-06T18:19:00.033Z,100.00
2018-11-06T18:21:29.191Z,100.00
2018-11-06T18:23:58.414Z,100.00
2018-11-06T18:26:27.765Z,98.95
2018-11-06T18:28:56.910Z,98.62
2018-11-06T18:31:26.152Z,97.28
2018-11-06T18:33:55.305Z,96.00
2018-11-06T18:36:24.408Z,96.04
2018-11-06T18:38:53.509Z,96.13
2018-11-06T18:41:22.589Z,96.92
2018-11-06T18:43:51.692Z,95.15
2018-11-06T18:46:20.803Z,93.86
2018-11-06T18:48:50.095Z,93.41
2018-11-06T18:51:19.221Z,91.52
2018-11-06T18:53:48.320Z,92.17
2018-11-06T18:56:17.483Z,90.40
2018-11-06T18:58:46.832Z,88.73
2018-11-06T19:01:16.068Z,87.80
2018-11-06T19:03:45.187Z,88.47
2018-11-06T19:06:14.423Z,87.95
2018-11-06T19:08:43.697Z,86.03
2018-11-06T19:11:13.175Z,87.43
2018-11-06T19:13:42.366Z,86.69
2018-11-06T19:16:11.473Z,85.85
2018-11-06T19:18:40.540Z,84.41
2018-11-06T19:21:09.640Z,84.30
2018-11-06T19:23:38.748Z,84.73
2018-11-06T19:26:07.853Z,79.15
2018-11-06T19:28:36.971Z,80.82
2018-11-06T19:31:06.056Z,81.99
2018-11-06T19:33:35.247Z,82.70
2018-11-06T19:36:04.447Z,81.91
2018-11-06T19:38:33.525Z,83.06
2018-11-06T19:41:02.625Z,79.73
2018-11-06T19:43:31.743Z,75.62
2018-11-06T19:46:00.920Z,74.98
2018-11-06T19:48:30.021Z,73.44
2018-11-06T19:50:59.148Z,72.43
2018-11-06T19:53:28.419Z,73.18
2018-11-06T19:55:57.424Z,73.78
2018-11-06T19:58:26.517Z,75.26
2018-11-06T20:00:55.662Z,75.17
2018-11-06T20:03:24.814Z,75.21
2018-11-06T20:05:53.978Z,75.52
2018-11-06T20:08:23.073Z,76.18
2018-11-06T20:10:52.180Z,76.51
2018-11-06T20:13:21.366Z,77.71
2018-11-06T20:15:50.568Z,79.03
2018-11-06T20:18:19.519Z,77.76
2018-11-06T20:20:48.673Z,78.25
2018-11-06T20:23:17.862Z,78.16
2018-11-06T20:25:47.064Z,77.90
2018-11-06T20:28:16.150Z,78.64
2018-11-06T20:30:45.319Z,79.29
2018-11-06T20:33:14.587Z,79.75
2018-11-06T20:35:43.640Z,78.96
2018-11-06T20:38:12.779Z,79.11
2018-11-06T20:40:41.850Z,80.14
2018-11-06T20:43:11.057Z,80.69
2018-11-06T20:45:40.053Z,81.06
2018-11-06T20:48:09.170Z,81.86
2018-11-06T20:50:38.343Z,82.04
2018-11-06T20:53:07.497Z,83.06
2018-11-06T20:55:36.619Z,83.65
2018-11-06T20:58:05.820Z,84.41
2018-11-06T21:00:34.942Z,85.05
2018-11-06T21:03:04.147Z,85.27
2018-11-06T21:05:33.307Z,86.27
2018-11-06T21:08:02.418Z,86.88
2018-11-06T21:10:32.495Z,87.86
2018-11-06T21:13:01.599Z,87.91
2018-11-06T21:15:30.671Z,88.59
2018-11-06T21:17:59.967Z,89.34
2018-11-06T21:20:28.905Z,89.71
2018-11-06T21:22:58.017Z,90.18
2018-11-06T21:25:27.308Z,90.12
2018-11-06T21:27:56.753Z,90.83
2018-11-06T21:30:25.845Z,91.33
2018-11-06T21:32:55.009Z,91.91
2018-11-06T21:35:24.185Z,92.39
2018-11-06T21:37:53.311Z,92.81
2018-11-06T21:40:22.766Z,93.20
2018-11-06T21:42:52.067Z,93.81
2018-11-06T21:45:21.321Z,94.79
2018-11-06T21:47:51.109Z,95.75
2018-11-06T21:50:20.477Z,96.22
2018-11-06T21:52:49.548Z,96.66
2018-11-06T21:55:19.444Z,97.51
2018-11-06T21:57:48.568Z,96.80
2018-11-06T22:00:19.089Z,97.63
2018-11-06T22:02:48.222Z,98.09
2018-11-06T22:05:18.647Z,98.55
2018-11-06T22:07:47.919Z,99.28
2018-11-06T22:10:19.089Z,99.49
2018-11-06T22:12:48.443Z,99.48
2018-11-06T22:15:18.498Z,100.00
2018-11-06T22:17:47.587Z,100.00
2018-11-06T22:20:18.013Z,100.00
2018-11-06T22:22:47.784Z,100.00
2018-11-06T22:25:16.993Z,100.00
2018-11-06T22:27:46.153Z,100.00
2018-11-06T22:30:16.255Z,100.00
2018-11-06T22:32:46.017Z,100.00
2018-11-06T22:35:16.417Z,100.00
2018-11-06T22:37:45.531Z,100.00
2018-11-06T22:40:16.748Z,100.00
2018-11-06T22:42:45.996Z,100.00
2018-11-06T22:45:16.191Z,100.00
2018-11-06T22:47:45.414Z,100.00
2018-11-06T22:50:15.881Z,100.00
2018-11-06T22:52:45.591Z,100.00
2018-11-06T22:55:14.900Z,100.00
2018-11-06T22:57:44.297Z,100.00
2018-11-06T23:00:17.346Z,100.00
2018-11-06T23:02:46.556Z,100.00
2018-11-06T23:05:15.777Z,100.00
2018-11-06T23:07:50.242Z,100.00
2018-11-06T23:10:19.548Z,100.00
2018-11-06T23:12:48.644Z,100.00
2018-11-06T23:15:17.764Z,100.00
2018-11-06T23:17:46.840Z,100.00
2018-11-06T23:20:15.945Z,100.00
2018-11-06T23:22:45.029Z,100.00
2018-11-06T23:25:14.171Z,100.00
2018-11-06T23:27:43.308Z,100.00
2018-11-06T23:30:14.111Z,100.00
2018-11-06T23:32:43.484Z,100.00
2018-11-06T23:35:12.654Z,100.00
2018-11-06T23:37:41.836Z,100.00
2018-11-06T23:40:11.396Z,100.00
2018-11-06T23:42:40.926Z,100.00
2018-11-06T23:45:10.415Z,100.00
2018-11-06T23:47:39.536Z,100.00
2018-11-06T23:50:09.588Z,100.00
2018-11-06T23:52:38.982Z,100.00
2018-11-06T23:55:08.257Z,100.00
2018-11-06T23:57:37.464Z,100.00
